Main page
METAR-TAF:

METAR-TAF

Airports :

Payam International Airport

Karaj, Iran

latitude: 35-46-34N, longitude: 050-49-36E, elevation: 1271 m

Current weather observation

The report was made 25 minutes ago, at 06:00 UTC
Wind 4 kt from the Northwest
Temperature 2°C
Humidity 87%
Pressure 1024 hPa
Visibility: 3500 m
Scattered clouds at a height of 2500 ft
Overcast at a height of 8000 ft
mist

METAR: OIIP 220600Z 32004KT 3500 BR SCT025 OVC080 02/M00 Q1024 A3025

Time: 09:55 (06:25 UTC)


TAF: missing

Weather observations and forecasts of more than 4000 airports (METAR and TAF reports).

The available stations are represented by yellow and red dots on the map.

Hover mouse over dot to see the name of the station.

Then click to see weather observations and forecasts.

To change the map : click on the green buttons with a black cross to zoom in, on the green button with a dash to zoom out, or on the green arrows for adjacent maps.


METAR-TAF: